createdAt,value
2022-08-27T00:01:22.927Z,65036.22
2022-08-27T00:03:50.908Z,65036.22
2022-08-27T00:06:20.223Z,65036.22
2022-08-27T00:08:49.164Z,65036.22
2022-08-27T00:11:18.824Z,65036.22
2022-08-27T00:13:46.635Z,65036.22
2022-08-27T00:16:16.196Z,65036.22
2022-08-27T00:18:48.112Z,65036.22
2022-08-27T00:21:17.742Z,65036.22
2022-08-27T00:23:45.382Z,65036.22
2022-08-27T00:26:13.239Z,65036.22
2022-08-27T00:28:41.595Z,65036.22
2022-08-27T00:31:12.471Z,65036.22
2022-08-27T00:33:41.262Z,65036.22
2022-08-27T00:36:09.487Z,65036.22
2022-08-27T00:38:38.582Z,65036.22
2022-08-27T00:41:09.514Z,65036.22
2022-08-27T00:43:53.817Z,65036.22
2022-08-27T00:46:29.785Z,65036.22
2022-08-27T00:49:05.961Z,65036.22
2022-08-27T00:51:33.448Z,65036.22
2022-08-27T00:54:00.930Z,65036.22
2022-08-27T00:56:35.205Z,65036.22
2022-08-27T00:59:04.162Z,65036.22
2022-08-27T01:01:35.820Z,65036.22
2022-08-27T01:04:06.058Z,65036.22
2022-08-27T01:06:36.855Z,65036.22
2022-08-27T01:09:13.248Z,65036.22
2022-08-27T01:11:40.304Z,65036.22
2022-08-27T01:14:07.351Z,65036.22
2022-08-27T01:16:40.267Z,65036.22
2022-08-27T01:19:23.043Z,65036.22
2022-08-27T01:22:20.385Z,65036.22
2022-08-27T01:24:56.007Z,65036.22
2022-08-27T01:27:28.205Z,65036.22
2022-08-27T01:29:55.888Z,65036.22
2022-08-27T01:32:28.224Z,65036.22
2022-08-27T01:34:57.424Z,65036.22
2022-08-27T01:37:25.854Z,65036.22
2022-08-27T01:39:56.986Z,65036.22
2022-08-27T01:42:42.673Z,65036.22
2022-08-27T01:45:36.986Z,65036.22
2022-08-27T01:48:07.680Z,65036.22
2022-08-27T01:50:40.157Z,65036.22
2022-08-27T01:53:21.959Z,65036.22
2022-08-27T01:55:51.742Z,65036.22
2022-08-27T01:58:25.171Z,65036.22
2022-08-27T02:00:56.914Z,65036.22
2022-08-27T02:03:25.712Z,65036.22
2022-08-27T02:05:53.051Z,65036.22
2022-08-27T02:08:20.732Z,65036.22
2022-08-27T02:10:49.693Z,65036.22
2022-08-27T02:13:17.673Z,65036.22
2022-08-27T02:15:45.568Z,65036.22
2022-08-27T02:18:13.939Z,65036.22
2022-08-27T02:20:43.901Z,65036.22
2022-08-27T02:23:11.233Z,65036.22
2022-08-27T02:25:38.794Z,65036.22
2022-08-27T02:28:07.006Z,65036.22
2022-08-27T02:30:35.562Z,65036.22
2022-08-27T02:33:04.597Z,65036.22
2022-08-27T02:35:35.286Z,65036.22
2022-08-27T02:38:02.482Z,65036.22
2022-08-27T02:40:29.886Z,65036.22
2022-08-27T02:42:56.987Z,65036.22
2022-08-27T02:45:24.270Z,65036.22
2022-08-27T02:47:51.334Z,65036.22
2022-08-27T02:50:18.726Z,65036.22
2022-08-27T02:52:46.369Z,65036.22
2022-08-27T02:55:17.230Z,65036.22
2022-08-27T02:57:45.722Z,65036.22
2022-08-27T03:00:16.764Z,65036.22
2022-08-27T03:02:44.119Z,65036.22
2022-08-27T03:05:13.363Z,65036.22
2022-08-27T03:07:41.321Z,65036.22
2022-08-27T03:10:12.221Z,65036.22
2022-08-27T03:12:39.881Z,65036.22
2022-08-27T03:15:10.512Z,65036.22
2022-08-27T03:17:56.590Z,65036.22
2022-08-27T03:20:25.143Z,65036.22
2022-08-27T03:22:53.575Z,65036.22
2022-08-27T03:25:21.088Z,65036.22
2022-08-27T03:27:48.189Z,65036.22
2022-08-27T03:30:20.279Z,65036.22
2022-08-27T03:32:47.868Z,65036.22
2022-08-27T03:35:15.487Z,65036.22
2022-08-27T03:37:43.360Z,65036.22
2022-08-27T03:40:11.890Z,65036.22
2022-08-27T03:42:41.718Z,65036.22
2022-08-27T03:45:10.701Z,65036.22
2022-08-27T03:47:38.505Z,65036.22
2022-08-27T03:50:08.001Z,65036.22
2022-08-27T03:52:37.211Z,65036.22
2022-08-27T03:55:07.785Z,65036.22
2022-08-27T03:57:34.992Z,65036.22
2022-08-27T04:00:02.728Z,65036.22
2022-08-27T04:02:29.842Z,65036.22
2022-08-27T04:04:59.941Z,65036.22
2022-08-27T04:07:27.038Z,65036.22
2022-08-27T04:09:54.035Z,65036.22
2022-08-27T04:12:21.097Z,65036.22
2022-08-27T04:14:48.245Z,65036.22
2022-08-27T04:17:16.176Z,65036.22
2022-08-27T04:19:43.174Z,65036.22
2022-08-27T04:22:10.253Z,65036.22
2022-08-27T04:24:38.175Z,65036.22
2022-08-27T04:27:06.705Z,65036.22
2022-08-27T04:29:34.330Z,65036.22
2022-08-27T04:32:01.962Z,65036.22
2022-08-27T04:34:30.351Z,65036.22
2022-08-27T04:36:58.417Z,65036.22
2022-08-27T04:39:28.040Z,65036.22
2022-08-27T04:41:58.225Z,65036.22
2022-08-27T04:44:29.405Z,65036.22
2022-08-27T04:47:05.426Z,100290.69
2022-08-27T04:49:33.979Z,100286.44
2022-08-27T04:52:01.392Z,100287.28
2022-08-27T04:54:32.855Z,100288.19
2022-08-27T04:57:02.818Z,100284.63
2022-08-27T04:59:31.250Z,100289.00
2022-08-27T05:01:58.913Z,100287.28
2022-08-27T05:04:26.307Z,100293.53
2022-08-27T05:06:54.829Z,100296.19
2022-08-27T05:09:21.971Z,100297.13
2022-08-27T05:11:54.057Z,100283.97
2022-08-27T05:14:22.295Z,100288.47
2022-08-27T05:16:49.442Z,100303.47
2022-08-27T05:19:16.723Z,100292.03
2022-08-27T05:21:49.814Z,100297.28
2022-08-27T05:24:18.330Z,100298.16
2022-08-27T05:26:46.098Z,100298.97
2022-08-27T05:29:14.371Z,100291.81
2022-08-27T05:31:42.994Z,100295.19
2022-08-27T05:34:15.428Z,100292.31
2022-08-27T05:36:48.151Z,100293.00
2022-08-27T05:39:17.325Z,100299.03
2022-08-27T05:41:44.515Z,100297.03
2022-08-27T05:44:39.654Z,100292.50
2022-08-27T05:46:59.001Z,100291.63
2022-08-27T05:49:26.139Z,100290.66
2022-08-27T05:51:53.186Z,100295.91
2022-08-27T05:54:20.426Z,100294.03
2022-08-27T05:56:50.287Z,100294.75
2022-08-27T05:59:36.701Z,100296.34
2022-08-27T06:02:06.242Z,100290.00
2022-08-27T06:04:33.453Z,100301.44
2022-08-27T06:07:00.774Z,100304.94
2022-08-27T06:09:30.155Z,100303.22
2022-08-27T06:12:00.190Z,100300.63
2022-08-27T06:14:27.765Z,100315.66
2022-08-27T06:16:55.444Z,100309.50
2022-08-27T06:19:23.015Z,100308.63
2022-08-27T06:22:00.807Z,100309.44
2022-08-27T06:24:39.976Z,100313.84
2022-08-27T06:27:09.115Z,100313.78
2022-08-27T06:29:36.125Z,100306.72
2022-08-27T06:32:03.881Z,100311.06
2022-08-27T06:34:31.043Z,100314.53
2022-08-27T06:36:58.176Z,100314.53
2022-08-27T06:39:25.190Z,100317.06
2022-08-27T06:41:53.010Z,100322.31
2022-08-27T06:44:21.178Z,100323.22
2022-08-27T06:46:48.321Z,100321.44
2022-08-27T06:49:15.387Z,100331.13
2022-08-27T06:51:46.950Z,100329.25
2022-08-27T06:54:15.914Z,100328.28
2022-08-27T06:56:44.658Z,100329.28
2022-08-27T06:59:15.076Z,100338.19
2022-08-27T07:01:47.533Z,100330.97
2022-08-27T07:04:21.610Z,100344.91
2022-08-27T07:06:49.247Z,100343.88
2022-08-27T07:09:17.062Z,100339.16
2022-08-27T07:11:44.101Z,100343.41
2022-08-27T07:14:11.449Z,100357.28
2022-08-27T07:16:40.864Z,100347.41
2022-08-27T07:19:08.200Z,100347.34
2022-08-27T07:21:36.227Z,100350.84
2022-08-27T07:24:05.144Z,100350.78
2022-08-27T07:26:36.213Z,100353.41
2022-08-27T07:29:06.532Z,100349.00
2022-08-27T07:31:35.799Z,100352.59
2022-08-27T07:34:04.682Z,100356.09
2022-08-27T07:36:33.166Z,100358.66
2022-08-27T07:39:01.508Z,100353.34
2022-08-27T07:41:32.909Z,100365.81
2022-08-27T07:44:19.590Z,100350.28
2022-08-27T07:46:49.448Z,100350.41
2022-08-27T07:49:17.993Z,100346.66
2022-08-27T07:51:45.405Z,100344.56
2022-08-27T07:54:12.614Z,100343.34
2022-08-27T07:56:39.696Z,100345.69
2022-08-27T07:59:07.132Z,100344.66
2022-08-27T08:01:34.445Z,100347.09
2022-08-27T08:04:01.690Z,100346.75
2022-08-27T08:06:29.184Z,100355.38
2022-08-27T08:08:56.221Z,100356.06
2022-08-27T08:11:23.290Z,100361.25
2022-08-27T08:13:50.370Z,100363.00
2022-08-27T08:16:17.574Z,100364.41
2022-08-27T08:18:44.650Z,100359.59
2022-08-27T08:21:14.949Z,100362.78
2022-08-27T08:23:43.008Z,100360.81
2022-08-27T08:26:12.399Z,100355.38
2022-08-27T08:28:41.011Z,100360.53
2022-08-27T08:31:08.955Z,100356.03
2022-08-27T08:33:37.223Z,100365.50
2022-08-27T08:36:14.957Z,100361.50
2022-08-27T08:38:43.210Z,100356.84
2022-08-27T08:41:39.000Z,100342.41
2022-08-27T08:44:34.121Z,100335.34
2022-08-27T08:47:25.121Z,100332.91
2022-08-27T08:50:19.944Z,100332.50
2022-08-27T08:52:59.470Z,100327.38
2022-08-27T08:55:33.489Z,100322.94
2022-08-27T08:58:45.572Z,100330.63
2022-08-27T09:01:17.524Z,100331.56
2022-08-27T09:04:01.182Z,100334.56
2022-08-27T09:06:55.098Z,100339.25
2022-08-27T09:09:51.361Z,100335.09
2022-08-27T09:12:27.390Z,100333.34
2022-08-27T09:15:17.188Z,100335.66
2022-08-27T09:17:45.483Z,100328.31
2022-08-27T09:20:25.559Z,100318.47
2022-08-27T09:23:11.873Z,100316.75
2022-08-27T09:25:41.886Z,100305.34
2022-08-27T09:28:48.160Z,100308.00
2022-08-27T09:31:20.876Z,100307.69
2022-08-27T09:33:56.861Z,100313.59
2022-08-27T09:36:25.414Z,100311.38
2022-08-27T09:39:03.584Z,100302.19
2022-08-27T09:41:37.810Z,100320.72
2022-08-27T09:44:18.404Z,100322.34
2022-08-27T09:47:00.011Z,100314.19
2022-08-27T09:49:27.251Z,100328.44
2022-08-27T09:51:56.712Z,100328.69
2022-08-27T09:54:46.741Z,100334.31
2022-08-27T09:57:38.998Z,100344.38
2022-08-27T10:00:15.010Z,100347.28
2022-08-27T10:02:55.042Z,100364.00
2022-08-27T10:05:43.670Z,100362.22
2022-08-27T10:08:31.834Z,100369.25
2022-08-27T10:11:07.678Z,100372.47
2022-08-27T10:14:01.452Z,100386.47
2022-08-27T10:16:48.422Z,100373.63
2022-08-27T10:20:16.328Z,100365.88
2022-08-27T10:23:13.262Z,100369.75
2022-08-27T10:25:53.149Z,100375.06
2022-08-27T10:28:36.933Z,100378.78
2022-08-27T10:31:26.961Z,100372.50
2022-08-27T10:34:24.355Z,100382.78
2022-08-27T10:37:24.597Z,100373.91
2022-08-27T10:40:20.199Z,100372.88
2022-08-27T10:43:17.474Z,100377.00
2022-08-27T10:46:27.153Z,100384.91
2022-08-27T10:49:25.270Z,100386.56
2022-08-27T10:52:10.890Z,100382.41
2022-08-27T10:54:47.966Z,100380.13
2022-08-27T10:57:55.071Z,100380.75
2022-08-27T11:00:36.271Z,100387.81
2022-08-27T11:03:13.709Z,100382.00
2022-08-27T11:05:50.427Z,100383.13
2022-08-27T11:08:39.163Z,100379.13
2022-08-27T11:11:57.149Z,100389.69
2022-08-27T11:14:08.612Z,100385.72
2022-08-27T11:16:48.266Z,100385.84
2022-08-27T11:19:28.130Z,100390.22
2022-08-27T11:22:26.006Z,100382.59
2022-08-27T11:25:00.012Z,100386.38
2022-08-27T11:27:31.670Z,100377.25
2022-08-27T11:30:16.997Z,100387.41
2022-08-27T11:33:05.139Z,100384.09
2022-08-27T11:35:50.650Z,100391.03
2022-08-27T11:38:29.262Z,100385.06
2022-08-27T11:41:45.627Z,100385.47
2022-08-27T11:44:15.066Z,100385.78
2022-08-27T11:46:58.850Z,100379.06
2022-08-27T11:49:31.141Z,100390.16
2022-08-27T11:52:05.102Z,100390.31
2022-08-27T11:55:10.748Z,100392.78
2022-08-27T11:57:38.784Z,100390.31
2022-08-27T12:00:27.736Z,100391.41
2022-08-27T12:03:03.857Z,100392.34
2022-08-27T12:05:49.303Z,100392.34
2022-08-27T12:08:37.330Z,100384.13
2022-08-27T12:11:37.966Z,100392.19
2022-08-27T12:14:36.482Z,100384.09
2022-08-27T12:17:16.997Z,100381.00
2022-08-27T12:20:50.925Z,100379.47
2022-08-27T12:23:57.557Z,100386.81
2022-08-27T12:26:33.565Z,100377.19
2022-08-27T12:29:39.318Z,100368.72
2022-08-27T12:32:26.170Z,100368.09
2022-08-27T12:35:19.601Z,100374.13
2022-08-27T12:38:07.464Z,100369.69
2022-08-27T12:40:48.896Z,100372.72
2022-08-27T12:43:28.895Z,100370.50
2022-08-27T12:46:04.698Z,100368.19
2022-08-27T12:48:43.162Z,100368.31
2022-08-27T12:51:32.687Z,100370.81
2022-08-27T12:54:37.132Z,100365.72
2022-08-27T12:57:39.737Z,100362.06
2022-08-27T13:00:26.445Z,100366.25
2022-08-27T13:03:43.174Z,100359.50
2022-08-27T13:06:20.366Z,100354.50
2022-08-27T13:08:59.386Z,100346.06
2022-08-27T13:11:44.251Z,100350.28
2022-08-27T13:14:20.211Z,100353.81
2022-08-27T13:16:57.939Z,100352.19
2022-08-27T13:19:34.883Z,100349.50
2022-08-27T13:22:06.013Z,100355.44
2022-08-27T13:24:47.301Z,100347.16
2022-08-27T13:27:14.689Z,100353.81
2022-08-27T13:29:42.881Z,100341.88
2022-08-27T13:32:11.945Z,100345.88
2022-08-27T13:34:41.062Z,100350.03
2022-08-27T13:37:35.465Z,100345.84
2022-08-27T13:40:03.737Z,100352.53
2022-08-27T13:42:31.805Z,100338.81
2022-08-27T13:45:04.691Z,100338.91
2022-08-27T13:47:43.241Z,100345.84
2022-08-27T13:50:32.033Z,100345.47
2022-08-27T13:53:28.733Z,100340.53
2022-08-27T13:55:58.594Z,100341.28
2022-08-27T13:58:34.061Z,100335.50
2022-08-27T14:01:16.607Z,100339.69
2022-08-27T14:04:10.175Z,100342.66
2022-08-27T14:06:47.099Z,100337.97
2022-08-27T14:09:29.024Z,100358.78
2022-08-27T14:12:00.530Z,100349.91
2022-08-27T14:14:28.058Z,100350.69
2022-08-27T14:17:05.510Z,100353.53
2022-08-27T14:19:36.595Z,100348.72
2022-08-27T14:22:05.116Z,100351.56
2022-08-27T14:24:32.142Z,100351.06
2022-08-27T14:27:13.322Z,100354.78
2022-08-27T14:29:40.514Z,100347.78
2022-08-27T14:32:07.802Z,100356.50
2022-08-27T14:34:35.886Z,100354.59
2022-08-27T14:37:03.934Z,100350.53
2022-08-27T14:39:31.776Z,100350.94
2022-08-27T14:41:59.532Z,100341.09
2022-08-27T14:44:27.011Z,100347.13
2022-08-27T14:46:54.935Z,100344.72
2022-08-27T14:49:29.665Z,100348.53
2022-08-27T14:51:56.995Z,100350.19
2022-08-27T14:54:29.078Z,100350.84
2022-08-27T14:57:02.996Z,100350.84
2022-08-27T14:59:30.993Z,100341.38
2022-08-27T15:02:00.130Z,100339.28
2022-08-27T15:04:28.951Z,100337.50
2022-08-27T15:06:56.573Z,100334.06
2022-08-27T15:09:23.640Z,100335.75
2022-08-27T15:11:52.618Z,100353.50
2022-08-27T15:14:33.418Z,100350.09
2022-08-27T15:17:01.513Z,100350.03
2022-08-27T15:19:38.154Z,100357.72
2022-08-27T15:22:27.376Z,100368.19
2022-08-27T15:24:57.282Z,100359.94
2022-08-27T15:27:32.045Z,100362.13
2022-08-27T15:30:13.757Z,100364.16
2022-08-27T15:32:47.213Z,100366.22
2022-08-27T15:35:19.452Z,100362.19
2022-08-27T15:37:46.659Z,100364.25
2022-08-27T15:40:16.355Z,100360.06
2022-08-27T15:42:43.668Z,100359.28
2022-08-27T15:45:13.511Z,100356.69
2022-08-27T15:47:40.764Z,100358.53
2022-08-27T15:50:08.614Z,100354.31
2022-08-27T15:52:41.009Z,100356.31
2022-08-27T15:55:23.904Z,100357.47
2022-08-27T15:57:51.724Z,100360.28
2022-08-27T16:00:20.216Z,100351.59
2022-08-27T16:02:47.598Z,100358.09
2022-08-27T16:05:16.317Z,100358.41
2022-08-27T16:07:44.244Z,100363.16
2022-08-27T16:10:12.088Z,100368.75
2022-08-27T16:12:39.149Z,100366.41
2022-08-27T16:15:07.681Z,100369.34
2022-08-27T16:17:36.114Z,100374.03
2022-08-27T16:20:05.565Z,100368.00
2022-08-27T16:22:34.840Z,100371.72
2022-08-27T16:25:02.846Z,100374.56
2022-08-27T16:27:29.968Z,100375.59
2022-08-27T16:29:57.442Z,100382.91
2022-08-27T16:32:25.851Z,100375.50
2022-08-27T16:34:55.603Z,100382.00
2022-08-27T16:37:24.803Z,100381.44
2022-08-27T16:39:52.010Z,100382.56
2022-08-27T16:42:19.861Z,100382.56
2022-08-27T16:44:46.946Z,100376.56
2022-08-27T16:47:14.389Z,100384.97
2022-08-27T16:50:00.099Z,100382.72
2022-08-27T16:52:27.588Z,100387.50
2022-08-27T16:54:56.871Z,100387.88
2022-08-27T16:57:24.353Z,100381.94
2022-08-27T16:59:51.434Z,100395.56
2022-08-27T17:02:30.089Z,100394.81
2022-08-27T17:05:01.494Z,100397.88
2022-08-27T17:07:48.889Z,100399.22
2022-08-27T17:10:18.466Z,100396.16
2022-08-27T17:12:47.367Z,100404.34
2022-08-27T17:15:18.901Z,100401.91
2022-08-27T17:17:46.654Z,100405.47
2022-08-27T17:20:15.542Z,100404.69
2022-08-27T17:22:43.737Z,100407.44
2022-08-27T17:25:11.528Z,100415.47
2022-08-27T17:27:38.635Z,100415.59
2022-08-27T17:30:07.618Z,100417.28
2022-08-27T17:32:39.886Z,100421.88
2022-08-27T17:35:08.452Z,100419.41
2022-08-27T17:37:35.899Z,100423.91
2022-08-27T17:40:04.710Z,100429.28
2022-08-27T17:42:32.193Z,100427.53
2022-08-27T17:45:00.155Z,100442.78
2022-08-27T17:47:27.930Z,100435.88
2022-08-27T17:49:55.072Z,100445.75
2022-08-27T17:52:22.461Z,100446.72
2022-08-27T17:54:54.159Z,100450.31
2022-08-27T17:57:22.613Z,100433.44
2022-08-27T17:59:50.345Z,100445.91
2022-08-27T18:02:22.741Z,100443.34
2022-08-27T18:04:50.439Z,100449.59
2022-08-27T18:07:18.998Z,100447.03
2022-08-27T18:09:46.878Z,100458.69
2022-08-27T18:12:18.626Z,100467.56
2022-08-27T18:14:51.078Z,100461.44
2022-08-27T18:17:18.077Z,100474.00
2022-08-27T18:19:45.904Z,100468.84
2022-08-27T18:22:16.392Z,100476.06
2022-08-27T18:24:43.641Z,100475.28
2022-08-27T18:27:10.850Z,100471.91
2022-08-27T18:29:37.869Z,100472.00
2022-08-27T18:32:05.114Z,100481.75
2022-08-27T18:34:32.597Z,100477.41
2022-08-27T18:36:59.740Z,100486.31
2022-08-27T18:39:26.845Z,100488.19
2022-08-27T18:41:54.658Z,100489.97
2022-08-27T18:44:21.788Z,100487.38
2022-08-27T18:46:49.085Z,100489.31
2022-08-27T18:49:16.237Z,100495.63
2022-08-27T18:51:48.067Z,100497.53
2022-08-27T18:54:17.718Z,100500.22
2022-08-27T18:56:44.865Z,100497.63
2022-08-27T18:59:13.159Z,100501.22
2022-08-27T19:01:40.633Z,100498.63
2022-08-27T19:04:08.171Z,100502.25
2022-08-27T19:06:35.642Z,100504.03
2022-08-27T19:09:03.977Z,100504.03
2022-08-27T19:11:31.639Z,100505.75
2022-08-27T19:13:58.694Z,100507.50
2022-08-27T19:16:45.644Z,100504.91
2022-08-27T19:19:15.786Z,100500.56
2022-08-27T19:21:46.893Z,100505.91
2022-08-27T19:24:16.681Z,100511.16
2022-08-27T19:26:44.492Z,100505.03
2022-08-27T19:29:11.626Z,100500.75
2022-08-27T19:31:39.046Z,100505.31
2022-08-27T19:34:08.236Z,100506.28
2022-08-27T19:36:40.818Z,100510.75
2022-08-27T19:39:11.165Z,100514.34
2022-08-27T19:41:38.664Z,100521.47
2022-08-27T19:44:05.731Z,100522.44
2022-08-27T19:46:33.153Z,100528.75
2022-08-27T19:49:00.293Z,100519.03
2022-08-27T19:51:27.465Z,100527.00
2022-08-27T19:53:54.527Z,100532.31
2022-08-27T19:56:21.936Z,100526.09
2022-08-27T19:58:49.050Z,100529.53
2022-08-27T20:01:16.346Z,100525.97
2022-08-27T20:03:43.758Z,100540.97
2022-08-27T20:06:11.077Z,100532.19
2022-08-27T20:08:38.198Z,100533.06
2022-08-27T20:11:05.400Z,100544.59
2022-08-27T20:13:33.345Z,100537.53
2022-08-27T20:16:02.920Z,100544.66
2022-08-27T20:18:30.151Z,100536.69
2022-08-27T20:20:57.256Z,100541.13
2022-08-27T20:23:25.181Z,100542.84
2022-08-27T20:25:56.680Z,100533.19
2022-08-27T20:28:43.336Z,100535.06
2022-08-27T20:31:10.987Z,100546.63
2022-08-27T20:33:38.422Z,100547.59
2022-08-27T20:36:08.616Z,100531.66
2022-08-27T20:38:35.985Z,100544.97
2022-08-27T20:41:03.217Z,100542.38
2022-08-27T20:43:30.424Z,100547.72
2022-08-27T20:45:57.739Z,100540.75
2022-08-27T20:48:24.870Z,100541.72
2022-08-27T20:50:52.044Z,100545.28
2022-08-27T20:53:19.010Z,100550.63
2022-08-27T20:55:46.337Z,100548.91
2022-08-27T20:58:32.018Z,100549.03
2022-08-27T21:01:00.011Z,100544.75
2022-08-27T21:03:27.181Z,100552.75
2022-08-27T21:05:54.230Z,100544.81
2022-08-27T21:08:21.957Z,100547.50
2022-08-27T21:10:56.820Z,100550.09
2022-08-27T21:13:26.602Z,100551.03
2022-08-27T21:15:56.524Z,100551.94
2022-08-27T21:18:29.344Z,100543.97
2022-08-27T21:20:58.240Z,100539.53
2022-08-27T21:23:27.766Z,100552.75
2022-08-27T21:25:59.673Z,100545.66
2022-08-27T21:28:26.848Z,100545.66
2022-08-27T21:30:53.878Z,100542.09
2022-08-27T21:33:21.149Z,100547.41
2022-08-27T21:35:49.214Z,100551.94
2022-08-27T21:38:16.473Z,100550.16
2022-08-27T21:40:43.669Z,100547.50
2022-08-27T21:43:10.918Z,100548.44
2022-08-27T21:45:39.333Z,100553.81
2022-08-27T21:48:06.447Z,100544.16
2022-08-27T21:50:33.560Z,100543.28
2022-08-27T21:53:00.658Z,100547.84
2022-08-27T21:55:27.901Z,100546.16
2022-08-27T21:57:55.067Z,100548.00
2022-08-27T22:00:43.139Z,100544.56
2022-08-27T22:03:18.228Z,100552.72
2022-08-27T22:05:46.213Z,100545.69
2022-08-27T22:08:15.878Z,100550.22
2022-08-27T22:10:46.817Z,100547.72
2022-08-27T22:13:15.319Z,100555.88
2022-08-27T22:15:42.454Z,100546.31
2022-08-27T22:18:09.921Z,100560.66
2022-08-27T22:20:37.138Z,100560.03
2022-08-27T22:23:09.968Z,100556.00
2022-08-27T22:25:38.436Z,100566.88
2022-08-27T22:28:05.568Z,100564.34
2022-08-27T22:30:32.727Z,100556.50
2022-08-27T22:33:00.307Z,100555.66
2022-08-27T22:35:28.932Z,100558.38
2022-08-27T22:37:56.491Z,100554.03
2022-08-27T22:40:27.350Z,100552.34
2022-08-27T22:42:55.891Z,100546.22
2022-08-27T22:45:23.898Z,100542.72
2022-08-27T22:47:51.155Z,100547.19
2022-08-27T22:50:20.791Z,100543.66
2022-08-27T22:52:49.486Z,100542.78
2022-08-27T22:55:21.450Z,100549.81
2022-08-27T22:57:51.790Z,100538.44
2022-08-27T23:00:27.139Z,100541.97
2022-08-27T23:02:54.496Z,100541.09
2022-08-27T23:05:22.671Z,100539.34
2022-08-27T23:07:50.383Z,100540.22
2022-08-27T23:10:21.485Z,100542.84
2022-08-27T23:12:48.818Z,100546.38
2022-08-27T23:15:18.439Z,100540.25
2022-08-27T23:17:45.441Z,100544.66
2022-08-27T23:20:13.644Z,100545.59
2022-08-27T23:22:41.596Z,100548.34
2022-08-27T23:25:30.283Z,100539.56
2022-08-27T23:28:06.289Z,100544.06
2022-08-27T23:30:34.709Z,100543.22
2022-08-27T23:33:02.051Z,100541.56
2022-08-27T23:35:29.491Z,100542.47
2022-08-27T23:37:57.482Z,100544.22
2022-08-27T23:40:26.009Z,100546.91
2022-08-27T23:42:53.674Z,100546.13
2022-08-27T23:45:25.480Z,100543.59
2022-08-27T23:47:52.791Z,100544.53
2022-08-27T23:50:20.850Z,100541.94
2022-08-27T23:52:53.453Z,100552.50
2022-08-27T23:55:21.316Z,100547.22
2022-08-27T23:57:49.891Z,100547.25
